Cumberland Furnace, Tennessee
Current Conditions -  °F | °C
As of 7:52 AM on Thursday 29 Jan 2015 (Local Time) from KCKV Reporting Station
Clear Clear  
Wind Chill: 54°   Ceiling: Unl
Heat Index: 54°   Visibility: 10mi
Dew Point: 37°   Wind: 18mph
Humidity: 53%   Direction: 220°SW
Pressure: 29.97"   Gusts: 33mph
Location:  36.27°N, 87.36°W
Report Text: KCKV 291352Z AUTO 22016G29KT 10SM CLR 12/03 A2997 RMK AO2 PK WND 20029/1344 SLP151 T01220028
Loading
Personal Weather Stations






























Interactive Weather Map New forecast layout! Learn more

10-Day Weather Forecast

Advertisements
Track Severe Weather on mobile